ADDS METAR Data INFO
IDs: Format: Raw Decoded Include TAF

Data at: 1849 UTC 17 Oct 2017

KIWD 171756Z AUTO 24003KT 10SM CLR 19/03 A2997 RMK AO2 SLP151 T01890033 10189 20056 58006
KIWD 171656Z AUTO VRB03KT 10SM CLR 17/06 A2999 RMK AO2 SLP158 T01720056
KIWD 171556Z AUTO 23004KT 10SM CLR 15/05 A2999 RMK AO2 SLP160 T01500050
KIWD 171456Z AUTO 00000KT 10SM CLR 12/05 A2999 RMK AO2 SLP161 T01220050 51010
KIWD 171356Z AUTO 22006KT 10SM CLR 11/04 A2998 RMK AO2 SLP158 T01060039
KIWD 171256Z AUTO 23004KT 10SM CLR 07/03 A2998 RMK AO2 SLP157 T00720028
KIWD 171156Z AUTO 23006KT 10SM CLR 07/03 A2996 RMK AO2 SLP153 T00670028 10117 20067 53012
KIWD 171056Z AUTO 24004KT 10SM CLR 07/03 A2995 RMK AO2 SLP147 T00720028
KIWD 170956Z AUTO 23005KT 10SM CLR 08/03 A2993 RMK AO2 SLP141 T00830028
KIWD 170856Z AUTO 24006KT 10SM CLR 08/03 A2993 RMK AO2 SLP138 T00830028 51010
KIWD 170756Z AUTO 22007KT 10SM CLR 10/03 A2991 RMK AO2 SLP133 T01000028
KIWD 170656Z AUTO 24010KT 10SM CLR 11/02 A2991 RMK AO2 SLP132 T01110022
KIWD 170556Z AUTO 23015G19KT 10SM CLR 12/02 A2989 RMK AO2 SLP127 T01170022 10128 20111 401440000 56013
KIWD 170456Z AUTO 22011G19KT 10SM CLR 12/02 A2990 RMK AO2 SLP128 T01220017
KIWD 170356Z AUTO 21010KT 10SM CLR 12/02 A2991 RMK AO2 SLP134 T01170017
KIWD 170256Z AUTO 21012G19KT 10SM CLR 12/01 A2994 RMK AO2 SLP143 T01170011 56014
KIWD 170156Z AUTO 21013G19KT 10SM CLR 11/01 A2994 RMK AO2 SLP144 T01110011
KIWD 170056Z AUTO 19014G20KT 10SM CLR 11/01 A2995 RMK AO2 SLP149 T01110006
KIWD 162356Z AUTO 20008KT 10SM CLR 12/01 A2998 RMK AO2 SLP160 T01170006 10144 20117 56019
KIWD 162256Z AUTO 20007KT 10SM CLR 13/01 A3000 RMK AO2 SLP166 T01280006
KIWD 162156Z AUTO 22012KT 10SM CLR 14/01 A3001 RMK AO2 SLP172 T01390006
KIWD 162056Z AUTO 24014G19KT 10SM CLR 14/01 A3004 RMK AO2 SLP179 T01440011 56024
KIWD 161956Z AUTO 22010KT 10SM CLR 14/02 A3006 RMK AO2 SLP189 T01440017
KIWD 161856Z AUTO 22012KT 10SM FEW048 13/02 A3008 RMK AO2 SLP195 T01330022
KIWD 161756Z AUTO 24012G20KT 10SM CLR 12/02 A3011 RMK AO2 SLP205 T01220017 10122 20017 58016
KIWD 161656Z AUTO 26012KT 10SM CLR 12/02 A3013 RMK AO2 SLP213 T01170017
KIWD 161556Z AUTO 26011KT 10SM CLR 10/02 A3015 RMK AO2 SLP219 T01000017
KIWD 161456Z AUTO 22008KT 10SM CLR 07/02 A3016 RMK AO2 SLP225 T00720022 58002
KIWD 161356Z AUTO 22006KT 10SM CLR 05/02 A3017 RMK AO2 SLP228 T00500017
KIWD 161256Z AUTO 00000KT 10SM CLR 02/01 A3016 RMK AO2 SLP226 T00220006 FZRANO
KIWD 161156Z AUTO 21005KT 10SM CLR 02/01 A3017 RMK AO2 SLP227 70010 T00220011 10022 20000 53001 FZRANO
KIWD 161056Z AUTO 21006KT 10SM CLR 02/01 A3017 RMK AO2 SLP226 T00170006 FZRANO
KIWD 160956Z AUTO 22003KT 10SM CLR 01/M01 A3016 RMK AO2 SLP225 T00061006 FZRANO
KIWD 160856Z AUTO 25004KT 10SM CLR 01/00 A3016 RMK AO2 SLP225 T00110000 51004 FZRANO
KIWD 160756Z AUTO 24003KT 10SM CLR 00/M01 A3016 RMK AO2 SLP224 T00001011 FZRANO
KIWD 160656Z AUTO 00000KT 10SM CLR 01/M01 A3016 RMK AO2 SLP223 T00111006 FZRANO